<?xml version="1.0" encoding="utf-8"?>
<gpx xmlns:xsi="http://www.w3.org/2001/XMLSchema-instance" xmlns:xsd="http://www.w3.org/2001/XMLSchema" version="1.1" creator="Shapelink.com" xmlns="http://www.topografix.com/GPX/1/1" xmlns:gpxtpx="http://www.garmin.com/xmlschemas/TrackPointExtension/v1">
  <metadata>
    <name>Gummiband 0.38 km, 2016-02-16</name>
    <desc></desc>
    <author><name>Stefan Östlund</name></author> 
    <time>2016-02-16T06:50:26Z</time>
  </metadata>
  <trk>
    <name>Gummiband 0.38 km, 2016-02-16</name>
    <trkseg>
      <trkpt lat="59.984636855616" lon="15.827682502101">
        <ele>328.2</ele>
        <time>2016-02-16T06:52:12Z</time>
      </trkpt>
      <trkpt lat="59.984613805391" lon="15.827744863437">
        <ele>328</ele>
        <time>2016-02-16T06:53:09Z</time>
      </trkpt>
      <trkpt lat="59.98459125808" lon="15.827731955311">
        <ele>328.2</ele>
        <time>2016-02-16T06:55:14Z</time>
      </trkpt>
      <trkpt lat="59.984783287409" lon="15.827365833919">
        <ele>328.2</ele>
        <time>2016-02-16T06:56:16Z</time>
      </trkpt>
      <trkpt lat="59.984805918539" lon="15.827424758676">
        <ele>327.2</ele>
        <time>2016-02-16T06:56:37Z</time>
      </trkpt>
      <trkpt lat="59.984771720387" lon="15.82741855607">
        <ele>327.6</ele>
        <time>2016-02-16T06:56:51Z</time>
      </trkpt>
      <trkpt lat="59.984636017426" lon="15.827583092767">
        <ele>328.4</ele>
        <time>2016-02-16T06:57:05Z</time>
      </trkpt>
      <trkpt lat="59.984728553602" lon="15.827490137496">
        <ele>328.4</ele>
        <time>2016-02-16T06:57:42Z</time>
      </trkpt>
      <trkpt lat="59.984748502524" lon="15.827486198003">
        <ele>328.4</ele>
        <time>2016-02-16T06:57:44Z</time>
      </trkpt>
      <trkpt lat="59.984747329058" lon="15.827403301012">
        <ele>327.2</ele>
        <time>2016-02-16T06:57:52Z</time>
      </trkpt>
      <trkpt lat="59.984701396246" lon="15.827428698169">
        <ele>327.2</ele>
        <time>2016-02-16T06:58:11Z</time>
      </trkpt>
      <trkpt lat="59.984761913564" lon="15.827340939676">
        <ele>327.4</ele>
        <time>2016-02-16T06:58:18Z</time>
      </trkpt>
      <trkpt lat="59.984789992929" lon="15.827364660453">
        <ele>327.8</ele>
        <time>2016-02-16T06:58:22Z</time>
      </trkpt>
      <trkpt lat="59.984795189707" lon="15.827376814208">
        <ele>328.2</ele>
        <time>2016-02-16T06:58:23Z</time>
      </trkpt>
      <trkpt lat="59.984815390086" lon="15.827394667655">
        <ele>327.4</ele>
        <time>2016-02-16T06:58:26Z</time>
      </trkpt>
      <trkpt lat="59.984747831972" lon="15.827376814208">
        <ele>327</ele>
        <time>2016-02-16T06:59:00Z</time>
      </trkpt>
      <trkpt lat="59.984716483666" lon="15.827395841121">
        <ele>327.4</ele>
        <time>2016-02-16T06:59:02Z</time>
      </trkpt>
      <trkpt lat="59.984666024628" lon="15.827493909351">
        <ele>328.2</ele>
        <time>2016-02-16T06:59:08Z</time>
      </trkpt>
      <trkpt lat="59.984657307452" lon="15.827547050597">
        <ele>327.4</ele>
        <time>2016-02-16T06:59:13Z</time>
      </trkpt>
      <trkpt lat="59.984595113754" lon="15.827725668886">
        <ele>328.2</ele>
        <time>2016-02-16T06:59:48Z</time>
      </trkpt>
      <trkpt lat="59.984671640501" lon="15.827477313189">
        <ele>328.2</ele>
        <time>2016-02-16T07:01:09Z</time>
      </trkpt>
      <trkpt lat="59.984673316881" lon="15.827486952374">
        <ele>327.2</ele>
        <time>2016-02-16T07:01:13Z</time>
      </trkpt>
      <trkpt lat="59.984690499776" lon="15.827472284049">
        <ele>327.2</ele>
        <time>2016-02-16T07:01:16Z</time>
      </trkpt>
      <trkpt lat="59.984730313801" lon="15.827453005679">
        <ele>327</ele>
        <time>2016-02-16T07:01:31Z</time>
      </trkpt>
      <trkpt lat="59.984674825623" lon="15.827490556591">
        <ele>328.2</ele>
        <time>2016-02-16T07:01:40Z</time>
      </trkpt>
      <trkpt lat="59.984650266656" lon="15.827521569621">
        <ele>328.4</ele>
        <time>2016-02-16T07:01:45Z</time>
      </trkpt>
      <trkpt lat="59.984647752086" lon="15.827547553511">
        <ele>328.2</ele>
        <time>2016-02-16T07:01:47Z</time>
      </trkpt>
      <trkpt lat="59.9846566369" lon="15.827558785257">
        <ele>327.4</ele>
        <time>2016-02-16T07:01:49Z</time>
      </trkpt>
      <trkpt lat="59.984658648556" lon="15.827553420841">
        <ele>327</ele>
        <time>2016-02-16T07:01:52Z</time>
      </trkpt>
      <trkpt lat="59.984668958293" lon="15.827548978434">
        <ele>328.4</ele>
        <time>2016-02-16T07:01:55Z</time>
      </trkpt>
      <trkpt lat="59.984646830077" lon="15.827621565688">
        <ele>328.4</ele>
        <time>2016-02-16T07:02:13Z</time>
      </trkpt>
      <trkpt lat="59.984627384069" lon="15.827519222689">
        <ele>327.4</ele>
        <time>2016-02-16T07:02:20Z</time>
      </trkpt>
      <trkpt lat="59.984646243344" lon="15.82728612205">
        <ele>327.4</ele>
        <time>2016-02-16T07:02:51Z</time>
      </trkpt>
      <trkpt lat="59.984668287741" lon="15.827293414303">
        <ele>327</ele>
        <time>2016-02-16T07:02:54Z</time>
      </trkpt>
      <trkpt lat="59.984691757061" lon="15.827346974644">
        <ele>326.2</ele>
        <time>2016-02-16T07:03:18Z</time>
      </trkpt>
      <trkpt lat="59.984715645476" lon="15.82739843951">
        <ele>327.4</ele>
        <time>2016-02-16T07:03:21Z</time>
      </trkpt>
      <trkpt lat="59.98470106097" lon="15.827580913473">
        <ele>328.6</ele>
        <time>2016-02-16T07:03:43Z</time>
      </trkpt>
      <trkpt lat="59.984694271631" lon="15.827530202978">
        <ele>327</ele>
        <time>2016-02-16T07:03:48Z</time>
      </trkpt>
      <trkpt lat="59.984819161941" lon="15.827305651877">
        <ele>326.8</ele>
        <time>2016-02-16T07:04:04Z</time>
      </trkpt>
      <trkpt lat="59.984843720908" lon="15.827343538065">
        <ele>326.4</ele>
        <time>2016-02-16T07:04:11Z</time>
      </trkpt>
    </trkseg>
  </trk>
</gpx>